Time;durP1;ratioP1;P1;durP2;ratioP2;P2;SDS_P1;SDS_P2;PMS_P1;PMS_P2;Temp;Humidity;BMP_temperature;BMP_pressure;BME280_temperature;BME280_humidity;BME280_pressure;Samples;Min_cycle;Max_cycle;Signal;HPM_P1;HPM_P2
2023/12/07 00:01:34;;;;;;;148.45;52.60;;;;;;;4.56;58.57;101522.50;5002007;28;20030;-39
2023/12/07 00:04:01;;;;;;;128.57;50.17;;;;;;;4.59;58.45;101521.59;5006797;28;20060;-39
2023/12/07 00:06:26;;;;;;;145.80;53.30;;;;;;;4.62;58.25;101523.25;5012347;28;20378;-39
2023/12/07 00:08:52;;;;;;;126.22;47.20;;;;;;;4.63;58.62;101524.97;5013922;28;20036;-40
2023/12/07 00:11:17;;;;;;;164.43;56.00;;;;;;;4.64;58.68;101531.91;5002152;28;20674;-39
2023/12/07 00:13:43;;;;;;;124.90;47.63;;;;;;;4.60;58.54;101532.88;5002708;28;20077;-39
2023/12/07 00:16:08;;;;;;;145.40;50.38;;;;;;;4.56;58.86;101535.53;5007328;28;20030;-39
2023/12/07 00:18:34;;;;;;;148.02;52.80;;;;;;;4.57;58.76;101533.78;5002438;28;20026;-39
2023/12/07 00:20:59;;;;;;;166.05;56.60;;;;;;;4.53;58.83;101534.75;5001982;28;20050;-38
2023/12/07 00:23:25;;;;;;;138.98;53.10;;;;;;;4.54;59.09;101536.44;5002830;28;20030;-38
2023/12/07 00:25:50;;;;;;;142.68;48.45;;;;;;;4.49;59.35;101536.53;5012148;28;20045;-42
2023/12/07 00:28:16;;;;;;;146.88;53.00;;;;;;;4.51;59.09;101542.59;5007111;28;20034;-39
2023/12/07 00:30:42;;;;;;;140.05;51.00;;;;;;;4.51;59.03;101539.13;5005008;28;20421;-40
2023/12/07 00:33:09;;;;;;;150.32;56.58;;;;;;;4.52;59.11;101531.28;5003382;28;20029;-40
2023/12/07 00:35:35;;;;;;;154.35;57.55;;;;;;;4.48;59.17;101531.38;4999396;28;20033;-39
2023/12/07 00:38:00;;;;;;;149.15;55.13;;;;;;;4.48;59.26;101541.78;5007158;28;20030;-39
2023/12/07 00:40:26;;;;;;;138.35;47.83;;;;;;;4.52;58.99;101533.88;5003375;28;20083;-39
2023/12/07 00:42:52;;;;;;;153.88;55.97;;;;;;;4.44;59.29;101538.41;5011127;28;20026;-39
2023/12/07 00:45:18;;;;;;;137.00;53.63;;;;;;;4.49;59.23;101533.94;5006294;28;20030;-39
2023/12/07 00:47:43;;;;;;;146.93;53.20;;;;;;;4.46;59.30;101541.84;5002349;28;20040;-39
2023/12/07 00:50:12;;;;;;;155.77;52.28;;;;;;;4.49;59.25;101544.34;5009237;28;20034;-39
2023/12/07 00:52:37;;;;;;;150.23;53.78;;;;;;;4.46;59.36;101547.06;5003153;28;20095;-40
2023/12/07 00:55:03;;;;;;;159.10;55.63;;;;;;;4.49;59.26;101549.56;5000719;28;20474;-38
2023/12/07 00:57:29;;;;;;;155.05;51.05;;;;;;;4.52;59.22;101553.88;5009632;28;20033;-38
2023/12/07 00:59:55;;;;;;;169.13;56.75;;;;;;;4.54;59.17;101558.16;5004920;28;20084;-39
2023/12/07 01:02:20;;;;;;;163.38;54.35;;;;;;;4.55;59.17;101559.91;5004882;28;20037;-39
2023/12/07 01:04:46;;;;;;;166.70;55.88;;;;;;;4.54;59.19;101558.16;5001517;28;20116;-39
2023/12/07 01:07:12;;;;;;;148.23;56.97;;;;;;;4.57;59.31;101557.25;5005894;28;20030;-39
2023/12/07 01:09:38;;;;;;;108.78;43.22;;;;;;;4.60;58.79;101564.16;5010572;28;20125;-39
2023/12/07 01:12:03;;;;;;;168.77;55.28;;;;;;;4.56;59.29;101564.22;5010096;28;20117;-40
2023/12/07 01:14:29;;;;;;;158.63;54.20;;;;;;;4.57;59.11;101562.47;5002778;28;20563;-39
2023/12/07 01:16:54;;;;;;;161.70;59.90;;;;;;;4.56;59.27;101566.81;5001067;28;20030;-39
2023/12/07 01:19:21;;;;;;;151.85;54.70;;;;;;;4.58;59.38;101569.41;5007245;28;20033;-39
2023/12/07 01:21:46;;;;;;;157.07;53.97;;;;;;;4.62;58.94;101572.78;5004542;28;20026;-39
2023/12/07 01:24:12;;;;;;;145.07;53.42;;;;;;;4.61;59.20;101573.72;5014766;28;20041;-39
2023/12/07 01:26:37;;;;;;;146.68;50.55;;;;;;;4.64;59.22;101571.00;5002925;28;20025;-39
2023/12/07 01:29:03;;;;;;;161.52;56.83;;;;;;;4.66;59.19;101577.94;5012470;28;20038;-38
2023/12/07 01:31:29;;;;;;;151.20;51.67;;;;;;;4.61;59.27;101571.09;5006330;28;20025;-39
2023/12/07 01:33:55;;;;;;;149.15;54.20;;;;;;;4.58;59.62;101577.22;5009189;28;20045;-39
2023/12/07 01:36:20;;;;;;;149.75;52.40;;;;;;;4.58;59.44;101579.81;4999005;28;20030;-39
2023/12/07 01:38:46;;;;;;;143.82;50.85;;;;;;;4.61;59.18;101578.91;5009091;28;20829;-40
2023/12/07 01:41:12;;;;;;;160.20;51.95;;;;;;;4.63;59.10;101579.72;5002381;28;21740;-39
2023/12/07 01:43:44;;;;;;;134.35;47.65;;;;;;;4.65;59.07;101580.56;5007411;28;20045;-39
2023/12/07 01:46:10;;;;;;;140.05;53.47;;;;;;;4.68;59.27;101583.13;5003322;28;20026;-38
2023/12/07 01:48:35;;;;;;;135.13;51.10;;;;;;;4.67;59.28;101587.47;5001572;28;20503;-39
2023/12/07 01:51:00;;;;;;;163.20;55.58;;;;;;;4.69;59.20;101587.44;5006306;28;20041;-39
2023/12/07 01:53:26;;;;;;;161.85;54.60;;;;;;;4.72;59.16;101587.38;5005048;28;20034;-40
2023/12/07 01:55:52;;;;;;;162.30;58.88;;;;;;;4.74;59.01;101590.81;4996425;28;20056;-39
2023/12/07 01:58:19;;;;;;;155.43;53.15;;;;;;;4.72;59.15;101596.06;5006199;28;20028;-39
2023/12/07 02:00:45;;;;;;;161.38;55.08;;;;;;;4.72;59.24;101603.03;5008747;28;20025;-39
2023/12/07 02:03:12;;;;;;;151.02;57.22;;;;;;;4.72;59.31;101603.03;5008714;28;20117;-40
2023/12/07 02:05:42;;;;;;;151.75;55.58;;;;;;;4.71;59.44;101601.31;5004367;28;20057;-40
2023/12/07 02:08:07;;;;;;;138.98;48.55;;;;;;;4.69;59.20;101608.28;5004576;28;20121;-41
2023/12/07 02:10:33;;;;;;;150.48;54.67;;;;;;;4.69;59.47;101605.69;5005796;28;20109;-40
2023/12/07 02:12:58;;;;;;;165.98;56.67;;;;;;;4.71;59.17;101611.72;5005651;28;20038;-40
2023/12/07 02:15:24;;;;;;;165.27;53.90;;;;;;;4.71;59.15;101606.53;4998188;28;20041;-40
2023/12/07 02:18:01;;;;;;;153.18;55.97;;;;;;;4.75;59.12;101600.38;5003553;28;20021;-40
2023/12/07 02:20:34;;;;;;;155.18;54.72;;;;;;;4.72;59.03;101598.66;5005755;28;20032;-40
2023/12/07 02:23:05;;;;;;;154.32;53.42;;;;;;;4.71;59.54;101598.69;5005132;28;20018;-40
2023/12/07 02:26:28;;;;;;;164.07;54.22;;;;;;;4.70;59.29;101604.81;5003028;28;20030;-39
2023/12/07 02:28:53;;;;;;;;;;;;;;;4.72;59.71;101605.63;4996915;28;20578;-39
2023/12/07 02:31:19;;;;;;;152.77;52.65;;;;;;;4.66;59.58;101598.78;5005963;28;19917;-40
2023/12/07 02:33:44;;;;;;;147.10;50.65;;;;;;;4.68;59.29;101603.97;4998440;28;20041;-40
2023/12/07 02:36:12;;;;;;;155.13;52.08;;;;;;;4.68;59.28;101601.34;5008319;28;20045;-40
2023/12/07 02:38:38;;;;;;;165.48;56.53;;;;;;;4.67;59.78;101607.47;5005584;28;20039;-40
2023/12/07 02:41:06;;;;;;;144.77;53.85;;;;;;;4.71;59.41;101607.38;5006961;28;20026;-40
2023/12/07 02:43:32;;;;;;;140.15;49.88;;;;;;;4.71;59.56;101611.72;5002763;28;20036;-39
2023/12/07 02:45:58;;;;;;;146.57;51.13;;;;;;;4.69;59.68;101611.75;5008224;28;20029;-40
2023/12/07 02:48:23;;;;;;;172.10;57.05;;;;;;;4.71;59.31;101611.72;5012542;28;20037;-40
2023/12/07 02:50:49;;;;;;;164.43;51.85;;;;;;;4.73;59.46;101617.78;5007991;28;20104;-40
2023/12/07 02:53:15;;;;;;;149.48;54.53;;;;;;;4.71;59.33;101623.00;4998911;28;20080;-40
2023/12/07 02:55:40;;;;;;;150.35;51.13;;;;;;;4.75;59.53;101617.75;5004960;28;20599;-40
2023/12/07 02:58:06;;;;;;;146.60;51.70;;;;;;;4.73;59.42;101620.41;5008826;28;20034;-40
2023/12/07 03:00:32;;;;;;;136.52;50.72;;;;;;;4.72;59.38;101623.88;5003790;28;20068;-39
2023/12/07 03:02:57;;;;;;;154.00;53.15;;;;;;;4.77;59.16;101627.25;5007581;28;20050;-39
2023/12/07 03:05:23;;;;;;;149.43;53.20;;;;;;;4.79;59.16;101630.69;5010551;28;20015;-40
2023/12/07 03:07:48;;;;;;;136.93;47.85;;;;;;;4.80;59.36;101629.81;5008485;28;20036;-40
2023/12/07 03:10:14;;;;;;;157.63;54.30;;;;;;;4.79;59.15;101625.47;5015741;28;20038;-40
2023/12/07 03:12:39;;;;;;;141.23;51.47;;;;;;;4.80;59.49;101628.94;5010911;28;20037;-39
2023/12/07 03:15:05;;;;;;;150.95;53.42;;;;;;;4.81;59.15;101634.13;5011032;28;20037;-39
2023/12/07 03:17:31;;;;;;;151.82;57.25;;;;;;;4.79;59.27;101635.91;5008183;28;20062;-39
2023/12/07 03:19:56;;;;;;;150.52;55.78;;;;;;;4.80;59.30;101637.63;5004709;28;20104;-39
2023/12/07 03:22:21;;;;;;;151.02;50.33;;;;;;;4.83;59.38;101641.94;5010835;28;20484;-40
2023/12/07 03:24:51;;;;;;;157.23;57.88;;;;;;;4.80;59.53;101648.06;5009463;28;20119;-40
2023/12/07 03:27:17;;;;;;;145.50;54.28;;;;;;;4.80;59.33;101642.84;5007579;28;20038;-39
2023/12/07 03:29:42;;;;;;;160.52;58.30;;;;;;;4.82;58.93;101641.06;5010917;28;20091;-40
2023/12/07 03:32:08;;;;;;;151.68;58.15;;;;;;;4.83;59.19;101644.53;5011149;28;20036;-39
2023/12/07 03:34:33;;;;;;;153.32;58.05;;;;;;;4.78;59.24;101654.19;5011500;28;20121;-40
2023/12/07 03:36:59;;;;;;;168.75;57.60;;;;;;;4.80;59.46;101650.66;5007759;28;20042;-40
2023/12/07 03:39:25;;;;;;;159.98;53.67;;;;;;;4.77;59.31;101663.75;5001596;28;20514;-39
2023/12/07 03:41:51;;;;;;;157.88;56.08;;;;;;;4.81;59.17;101656.75;5012297;28;20394;-40
2023/12/07 03:44:17;;;;;;;166.82;58.08;;;;;;;4.81;59.54;101652.38;5002766;28;20041;-39
2023/12/07 03:46:42;;;;;;;146.13;53.58;;;;;;;4.83;59.50;101658.44;5008857;28;20500;-40
2023/12/07 03:49:08;;;;;;;142.75;49.90;;;;;;;4.84;59.26;101662.75;5010939;28;20080;-40
2023/12/07 03:51:36;;;;;;;136.68;50.95;;;;;;;4.84;59.33;101654.94;5010596;28;20033;-40
2023/12/07 03:54:01;;;;;;;150.88;55.83;;;;;;;4.81;59.70;101660.22;5009150;28;20076;-41
2023/12/07 03:56:29;;;;;;;170.30;55.60;;;;;;;4.86;59.09;101663.59;5005282;28;20061;-40
2023/12/07 03:58:55;;;;;;;151.85;53.67;;;;;;;4.85;59.28;101658.38;5012265;28;20022;-40
2023/12/07 04:01:24;;;;;;;145.35;51.05;;;;;;;4.85;59.54;101663.59;5002174;28;20041;-40
2023/12/07 04:03:51;;;;;;;160.82;58.63;;;;;;;4.82;59.29;101661.09;5009815;28;20489;-40
2023/12/07 04:06:16;;;;;;;150.98;55.08;;;;;;;4.82;59.47;101661.09;5012340;28;20121;-40
2023/12/07 04:08:42;;;;;;;100.07;35.88;;;;;;;4.84;59.59;101665.38;5008156;28;20108;-40
2023/12/07 04:11:08;;;;;;;153.02;56.47;;;;;;;4.82;59.25;101661.94;5007685;28;20061;-40
2023/12/07 04:13:33;;;;;;;168.88;64.57;;;;;;;4.75;59.71;101669.91;5011388;28;20043;-40
2023/12/07 04:15:59;;;;;;;171.82;57.60;;;;;;;4.77;59.54;101671.56;5008390;28;20038;-41
2023/12/07 04:18:24;;;;;;;153.82;54.40;;;;;;;4.80;59.23;101670.69;5013646;28;20443;-40
2023/12/07 04:20:50;;;;;;;176.50;62.28;;;;;;;4.78;59.44;101669.84;4993668;28;20611;-39
2023/12/07 04:23:16;;;;;;;163.52;60.10;;;;;;;4.79;59.37;101669.81;5010671;28;20384;-40
2023/12/07 04:25:41;;;;;;;154.35;58.90;;;;;;;4.83;59.55;101668.88;5008686;28;20030;-39
2023/12/07 04:28:07;;;;;;;164.40;54.17;;;;;;;4.82;59.50;101674.97;5011579;28;20064;-40
2023/12/07 04:30:32;;;;;;;144.98;47.60;;;;;;;4.83;59.21;101679.28;5012201;28;20044;-41
2023/12/07 04:32:58;;;;;;;152.85;55.47;;;;;;;4.83;59.12;101684.50;5005324;28;20481;-40
2023/12/07 04:35:23;;;;;;;148.30;55.13;;;;;;;4.84;59.47;101686.22;5009514;28;20037;-40
2023/12/07 04:37:48;;;;;;;164.30;57.10;;;;;;;4.87;58.77;101691.41;5007790;28;20026;-40
2023/12/07 04:40:14;;;;;;;141.70;55.17;;;;;;;4.84;59.14;101690.59;5001860;28;20026;-39
2023/12/07 04:42:40;;;;;;;157.70;57.22;;;;;;;4.82;59.28;101684.56;5004683;28;20504;-40
2023/12/07 04:45:06;;;;;;;151.85;54.38;;;;;;;4.85;59.48;101687.97;5007163;28;20049;-40
2023/12/07 04:47:32;;;;;;;136.85;52.67;;;;;;;4.85;59.33;101687.97;5008420;28;20837;-40
2023/12/07 04:49:58;;;;;;;155.48;56.45;;;;;;;4.80;59.41;101695.00;5006102;28;20022;-39
2023/12/07 04:52:23;;;;;;;147.20;56.58;;;;;;;4.78;59.38;101693.31;5009947;28;20033;-38
2023/12/07 04:54:49;;;;;;;158.65;56.70;;;;;;;4.79;59.33;101692.44;5003333;28;20026;-38
2023/12/07 04:57:14;;;;;;;165.90;57.08;;;;;;;4.80;59.56;101695.00;5009440;28;20593;-38
2023/12/07 04:59:40;;;;;;;163.50;56.95;;;;;;;4.77;59.40;101695.03;5002290;28;20099;-39
2023/12/07 05:02:06;;;;;;;152.38;53.78;;;;;;;4.80;59.80;101700.22;5003948;28;20030;-38
2023/12/07 05:04:33;;;;;;;163.00;55.65;;;;;;;4.80;59.52;101696.75;5003546;28;20033;-39
2023/12/07 05:06:59;;;;;;;144.25;52.55;;;;;;;4.81;59.63;101699.31;5011934;28;20029;-38
2023/12/07 05:09:25;;;;;;;159.05;54.28;;;;;;;4.83;59.36;101701.91;5007476;28;20479;-38
2023/12/07 05:11:51;;;;;;;153.02;55.92;;;;;;;4.84;59.32;101706.25;5006530;28;20061;-39
2023/12/07 05:14:16;;;;;;;104.53;37.42;;;;;;;4.85;59.27;101703.59;5013901;28;20026;-39
2023/12/07 05:16:42;;;;;;;156.45;51.08;;;;;;;4.83;59.56;101713.19;5002104;28;20042;-39
2023/12/07 05:19:07;;;;;;;157.63;57.92;;;;;;;4.80;59.36;101715.00;5007385;28;20029;-39
2023/12/07 05:21:33;;;;;;;150.30;52.53;;;;;;;4.84;59.55;101721.91;5010017;28;20037;-39
2023/12/07 05:23:58;;;;;;;136.95;51.22;;;;;;;4.86;59.28;101720.97;5009067;28;20080;-40
2023/12/07 05:26:23;;;;;;;149.85;52.53;;;;;;;4.89;59.54;101725.25;5007381;28;20046;-41
2023/12/07 05:28:49;;;;;;;128.23;48.45;;;;;;;4.86;59.25;101730.53;5006827;28;20040;-43
2023/12/07 05:31:18;;;;;;;146.10;53.20;;;;;;;4.90;59.49;101731.34;4998943;28;20034;-41
2023/12/07 05:33:44;;;;;;;160.25;57.83;;;;;;;4.88;59.54;101729.63;5006559;28;20125;-40
2023/12/07 05:36:10;;;;;;;141.93;52.70;;;;;;;4.87;59.59;101722.69;4999090;28;20483;-41
2023/12/07 05:38:35;;;;;;;146.93;53.22;;;;;;;4.88;59.41;101727.03;5008794;28;20322;-40
2023/12/07 05:41:00;;;;;;;147.77;53.17;;;;;;;4.91;59.21;101727.88;5011874;28;20453;-40
2023/12/07 05:43:26;;;;;;;150.93;56.25;;;;;;;4.88;59.31;101724.41;5012981;28;20030;-41
2023/12/07 05:45:51;;;;;;;152.32;54.40;;;;;;;4.90;59.58;101720.94;5010165;28;20064;-41
2023/12/07 05:48:17;;;;;;;144.02;52.95;;;;;;;4.90;59.53;101726.13;5004733;28;20042;-40
2023/12/07 05:50:42;;;;;;;156.05;55.58;;;;;;;4.92;59.29;101720.00;5004781;28;20018;-40
2023/12/07 05:53:08;;;;;;;133.07;51.42;;;;;;;4.87;59.46;101714.88;4994734;28;20038;-40
2023/12/07 05:55:34;;;;;;;100.13;32.83;;;;;;;4.86;59.75;101722.69;5007620;28;20018;-41
2023/12/07 05:57:59;;;;;;;125.28;50.38;;;;;;;4.87;59.45;101722.69;5008871;28;20113;-40
2023/12/07 06:00:25;;;;;;;137.73;52.08;;;;;;;4.86;59.56;101726.19;5012643;28;20026;-40
2023/12/07 06:02:50;;;;;;;145.73;52.95;;;;;;;4.86;59.69;101725.31;5003041;28;20716;-40
2023/12/07 06:05:16;;;;;;;156.68;53.22;;;;;;;4.84;59.78;101730.56;5002829;28;20101;-40
2023/12/07 06:07:41;;;;;;;143.00;49.67;;;;;;;4.85;59.58;101719.25;5009683;28;20377;-40
2023/12/07 06:10:07;;;;;;;125.93;46.50;;;;;;;4.86;59.43;101723.59;5007279;28;20038;-41
2023/12/07 06:12:33;;;;;;;137.40;49.63;;;;;;;4.87;59.53;101730.53;5011269;28;20528;-40
2023/12/07 06:14:58;;;;;;;136.57;50.35;;;;;;;4.88;59.71;101724.41;5009845;28;20511;-41
2023/12/07 06:17:24;;;;;;;154.18;53.22;;;;;;;4.91;59.49;101733.06;5013392;28;20041;-40
2023/12/07 06:19:49;;;;;;;147.55;53.10;;;;;;;4.87;59.52;101727.91;5006211;28;20026;-41
2023/12/07 06:22:15;;;;;;;148.95;52.17;;;;;;;4.91;59.93;101733.06;5001544;28;20034;-40
2023/12/07 06:24:40;;;;;;;139.10;47.20;;;;;;;4.91;59.50;101727.88;5002417;28;20018;-41
2023/12/07 06:27:06;;;;;;;141.07;52.45;;;;;;;4.91;59.76;101738.28;5007056;28;20029;-41
2023/12/07 06:29:32;;;;;;;154.10;56.13;;;;;;;4.91;59.49;101738.28;5008933;28;20040;-41
2023/12/07 06:31:57;;;;;;;139.40;49.67;;;;;;;4.94;59.49;101735.59;5010689;28;20026;-41
2023/12/07 06:34:23;;;;;;;150.15;54.25;;;;;;;4.92;59.38;101739.97;5008965;28;20072;-41
2023/12/07 06:36:48;;;;;;;145.93;50.00;;;;;;;4.95;59.35;101734.72;4997572;28;20034;-40
2023/12/07 06:39:16;;;;;;;150.63;53.97;;;;;;;4.94;59.71;101739.09;5004120;28;20402;-41
2023/12/07 06:41:42;;;;;;;148.80;51.03;;;;;;;4.95;59.69;101742.53;5002117;28;20042;-40
2023/12/07 06:44:08;;;;;;;87.68;32.42;;;;;;;4.95;59.56;101745.16;5003445;28;20034;-41
2023/12/07 06:46:33;;;;;;;139.40;51.28;;;;;;;4.95;59.56;101745.16;5007075;28;20117;-40
2023/12/07 06:49:00;;;;;;;134.80;50.05;;;;;;;4.96;59.45;101749.47;5016514;28;20109;-41
2023/12/07 06:51:25;;;;;;;147.85;52.05;;;;;;;4.93;59.88;101759.97;5009337;28;20064;-41
2023/12/07 06:53:51;;;;;;;160.32;52.95;;;;;;;4.92;59.75;101763.47;4997099;28;20050;-40
2023/12/07 06:56:16;;;;;;;133.23;49.38;;;;;;;4.92;59.86;101766.94;4997649;28;20033;-41
2023/12/07 06:58:42;;;;;;;137.05;50.10;;;;;;;4.91;59.63;101764.38;5007582;28;20021;-40
2023/12/07 07:01:07;;;;;;;127.15;47.70;;;;;;;4.91;59.60;101759.16;5006071;28;20039;-41
2023/12/07 07:03:33;;;;;;;143.27;53.17;;;;;;;4.90;59.95;101767.88;5004295;28;20392;-40
2023/12/07 07:05:59;;;;;;;148.45;50.63;;;;;;;4.93;59.69;101765.19;5003926;28;20034;-41
2023/12/07 07:08:25;;;;;;;149.35;53.10;;;;;;;4.93;59.69;101765.19;5008916;28;20056;-41
2023/12/07 07:10:50;;;;;;;142.40;49.35;;;;;;;4.94;59.75;101770.38;5006483;28;20108;-40
2023/12/07 07:13:16;;;;;;;154.10;54.72;;;;;;;4.92;60.12;101766.06;5003464;28;20044;-41
2023/12/07 07:15:46;;;;;;;94.60;32.22;;;;;;;4.96;60.02;101770.34;4999742;28;20026;-41
2023/12/07 07:18:12;;;;;;;134.93;50.45;;;;;;;4.96;59.93;101778.19;4998496;28;20037;-39
2023/12/07 07:20:37;;;;;;;129.48;44.42;;;;;;;5.00;59.91;101779.84;5005002;28;20233;-38
2023/12/07 07:23:03;;;;;;;126.35;46.97;;;;;;;4.98;59.92;101779.91;5005489;28;20021;-39
2023/12/07 07:25:28;;;;;;;127.97;46.95;;;;;;;5.02;59.68;101783.31;5014417;28;20107;-38
2023/12/07 07:27:54;;;;;;;124.65;45.47;;;;;;;5.04;59.79;101773.69;5008191;28;20033;-39
2023/12/07 07:30:20;;;;;;;142.95;50.20;;;;;;;5.01;59.52;101777.19;5010922;28;20041;-38
2023/12/07 07:32:46;;;;;;;140.40;49.20;;;;;;;5.04;59.81;101779.75;5008618;28;20037;-38
2023/12/07 07:35:11;;;;;;;131.55;47.20;;;;;;;5.05;59.69;101783.25;5001806;28;20030;-38
2023/12/07 07:37:41;;;;;;;132.55;50.22;;;;;;;5.07;59.69;101776.22;5005163;28;20025;-38
2023/12/07 07:40:08;;;;;;;118.80;43.10;;;;;;;5.08;60.08;101777.94;5008304;28;20057;-39
2023/12/07 07:42:33;;;;;;;140.75;49.17;;;;;;;5.11;59.52;101782.28;5010913;28;20034;-40
2023/12/07 07:44:59;;;;;;;126.20;47.35;;;;;;;5.10;59.68;101775.34;5007558;28;20026;-40
2023/12/07 07:47:25;;;;;;;138.50;51.60;;;;;;;5.12;59.67;101779.63;5012075;28;20083;-40
2023/12/07 07:49:50;;;;;;;136.93;52.67;;;;;;;5.12;59.97;101778.78;5012657;28;20668;-39
2023/12/07 07:52:15;;;;;;;140.48;50.40;;;;;;;5.17;59.50;101782.16;5006183;28;20421;-39
2023/12/07 07:54:42;;;;;;;114.90;42.72;;;;;;;5.21;59.88;101780.38;5003444;28;20061;-39
2023/12/07 07:57:07;;;;;;;136.95;48.88;;;;;;;5.18;59.65;101778.66;5007843;28;20103;-39
2023/12/07 07:59:33;;;;;;;140.52;51.40;;;;;;;5.20;59.78;101771.66;5005996;28;20474;-39
2023/12/07 08:01:58;;;;;;;126.38;45.88;;;;;;;5.24;59.57;101782.88;5009141;28;20031;-39
2023/12/07 08:04:24;;;;;;;125.53;48.25;;;;;;;5.27;59.78;101782.84;5012777;28;20504;-40
2023/12/07 08:06:49;;;;;;;136.27;49.40;;;;;;;5.27;59.58;101777.63;5015613;28;20040;-39
2023/12/07 08:09:15;;;;;;;128.07;46.20;;;;;;;5.28;59.58;101782.81;5006924;28;20033;-39
2023/12/07 08:11:40;;;;;;;124.55;46.03;;;;;;;5.30;59.88;101783.63;5012801;28;20029;-38
2023/12/07 08:14:06;;;;;;;131.52;46.40;;;;;;;5.29;59.89;101788.91;5013680;28;20079;-39
2023/12/07 08:16:31;;;;;;;129.82;46.85;;;;;;;5.33;60.05;101790.56;4997909;28;20481;-39
2023/12/07 08:18:58;;;;;;;119.85;45.00;;;;;;;5.35;59.87;101796.63;5008786;28;20030;-39
2023/12/07 08:21:25;;;;;;;112.97;43.92;;;;;;;5.37;59.49;101793.97;5006353;28;20054;-41
2023/12/07 08:23:51;;;;;;;117.50;45.75;;;;;;;5.33;59.93;101803.63;5006638;28;20609;-39
2023/12/07 08:26:17;;;;;;;113.72;44.00;;;;;;;5.38;59.81;101811.34;4999338;28;20042;-38
2023/12/07 08:28:43;;;;;;;115.03;46.78;;;;;;;5.42;59.66;101807.81;5002857;28;20050;-39
2023/12/07 08:31:09;;;;;;;103.47;44.10;;;;;;;5.43;59.38;101799.94;4996967;28;20441;-39
2023/12/07 08:33:35;;;;;;;109.43;44.00;;;;;;;5.44;59.51;101809.47;4999079;28;20036;-39
2023/12/07 08:36:01;;;;;;;123.35;46.85;;;;;;;5.47;59.60;101805.94;5002944;28;20029;-38
2023/12/07 08:38:27;;;;;;;117.53;44.72;;;;;;;5.49;59.46;101802.44;5009259;28;20037;-40
2023/12/07 08:40:52;;;;;;;116.95;47.25;;;;;;;5.49;59.69;101804.16;5006645;28;20032;-40
2023/12/07 08:43:25;;;;;;;103.50;42.47;;;;;;;5.53;59.73;101808.44;4997143;28;20532;-39
2023/12/07 08:45:51;;;;;;;123.85;44.53;;;;;;;5.55;59.80;101808.41;5007661;28;20033;-39
2023/12/07 08:48:19;;;;;;;96.85;40.60;;;;;;;5.55;59.41;101809.28;4997653;28;20060;-39
2023/12/07 08:50:44;;;;;;;119.20;44.05;;;;;;;5.58;59.29;101808.34;5005242;28;20030;-39
2023/12/07 08:53:10;;;;;;;110.63;41.65;;;;;;;5.58;59.25;101804.00;4999528;28;20033;-39
2023/12/07 08:55:35;;;;;;;75.47;27.45;;;;;;;5.59;59.25;101800.50;4992256;28;20493;-38
2023/12/07 08:58:03;;;;;;;112.13;43.80;;;;;;;5.62;59.38;101810.03;5002499;28;20057;-39
2023/12/07 09:00:29;;;;;;;122.18;46.58;;;;;;;5.64;59.57;101808.25;5007236;28;20693;-39
2023/12/07 09:02:54;;;;;;;113.70;45.17;;;;;;;5.65;59.66;101810.81;4998260;28;20069;-40
2023/12/07 09:05:20;;;;;;;111.32;46.53;;;;;;;5.60;59.83;101817.03;5000947;28;20049;-39
2023/12/07 09:07:45;;;;;;;115.47;45.13;;;;;;;5.65;59.61;101820.41;5010303;28;20029;-39
2023/12/07 09:10:11;;;;;;;123.45;46.58;;;;;;;5.68;59.71;101825.56;4999513;28;20040;-40
2023/12/07 09:12:37;;;;;;;120.55;46.85;;;;;;;5.72;59.49;101822.00;5004847;28;20029;-40
2023/12/07 09:15:03;;;;;;;116.50;44.80;;;;;;;5.72;59.49;101824.59;5004188;28;20038;-40
2023/12/07 09:17:29;;;;;;;119.28;44.88;;;;;;;5.74;59.45;101828.06;4996756;28;20030;-39
2023/12/07 09:19:55;;;;;;;124.65;43.90;;;;;;;5.80;59.31;101824.44;5002290;28;20092;-39
2023/12/07 09:22:21;;;;;;;136.05;47.55;;;;;;;5.77;59.54;101822.78;5007775;28;20025;-39
2023/12/07 09:24:46;;;;;;;117.47;45.67;;;;;;;5.82;59.53;101822.69;5005344;28;20025;-39
2023/12/07 09:27:13;;;;;;;88.55;36.75;;;;;;;5.90;59.36;101827.75;4995446;28;20120;-40
2023/12/07 09:29:39;;;;;;;120.00;44.67;;;;;;;5.89;59.50;101826.03;5013515;28;20117;-39
2023/12/07 09:32:06;;;;;;;103.07;41.15;;;;;;;5.93;59.25;101825.06;5007437;28;20109;-40
2023/12/07 09:34:31;;;;;;;108.30;41.95;;;;;;;5.93;59.45;101822.47;5006996;28;20030;-39
2023/12/07 09:37:23;;;;;;;125.07;49.75;;;;;;;5.91;59.25;101825.09;5003993;28;20041;-39
2023/12/07 09:39:48;;;;;;;121.05;43.78;;;;;;;5.90;59.39;101820.75;5002605;28;20573;-40
2023/12/07 09:42:14;;;;;;;113.47;42.35;;;;;;;5.90;59.27;101830.34;5003663;28;20044;-39
2023/12/07 09:44:39;;;;;;;107.25;43.60;;;;;;;5.96;59.68;101835.47;4999466;28;20547;-39
2023/12/07 09:47:05;;;;;;;103.95;40.83;;;;;;;6.00;59.35;101829.28;5000797;28;20041;-40
2023/12/07 09:49:31;;;;;;;108.95;41.72;;;;;;;6.00;59.28;101824.06;5000655;28;20042;-39
2023/12/07 09:51:58;;;;;;;105.45;40.35;;;;;;;6.01;59.16;101823.19;5002890;28;20044;-39
2023/12/07 09:54:26;;;;;;;100.30;40.80;;;;;;;5.98;59.37;101828.44;5003637;28;20042;-39
2023/12/07 09:56:54;;;;;;;115.20;45.95;;;;;;;5.99;59.34;101822.31;4993781;28;20041;-39
2023/12/07 09:59:20;;;;;;;103.38;40.67;;;;;;;6.03;59.53;101826.63;5002472;28;20610;-40
2023/12/07 10:01:45;;;;;;;108.95;41.45;;;;;;;6.04;59.38;101817.88;4993536;28;20117;-39
2023/12/07 10:04:19;;;;;;;115.60;42.25;;;;;;;6.17;59.21;101817.63;4998535;28;20157;-40
2023/12/07 10:06:49;;;;;;;100.45;40.13;;;;;;;6.14;59.11;101833.34;5007361;28;20032;-39
2023/12/07 10:09:15;;;;;;;115.88;40.95;;;;;;;6.17;59.53;101813.28;5002454;28;20038;-39
2023/12/07 10:11:41;;;;;;;95.78;38.72;;;;;;;6.21;59.18;101816.66;5006525;28;20060;-40
2023/12/07 10:14:07;;;;;;;101.68;39.55;;;;;;;6.06;59.57;101816.09;5000440;28;20870;-39
2023/12/07 10:16:35;;;;;;;86.70;38.10;;;;;;;6.08;59.51;101816.94;5002409;28;20495;-40
2023/12/07 10:19:19;;;;;;;97.35;35.53;;;;;;;6.14;59.48;101822.91;5003658;28;20034;-39
2023/12/07 10:21:44;;;;;;;92.65;36.50;;;;;;;6.05;59.73;101824.00;5003878;28;20034;-40
2023/12/07 10:24:10;;;;;;;92.25;36.63;;;;;;;6.07;60.01;101825.66;4998125;28;20026;-39
2023/12/07 10:26:38;;;;;;;102.32;34.40;;;;;;;6.03;59.98;101824.00;4993091;28;20033;-39
2023/12/07 10:29:07;;;;;;;58.15;24.98;;;;;;;6.00;60.03;101821.44;4992353;28;20445;-39
2023/12/07 10:31:33;;;;;;;104.32;38.05;;;;;;;5.94;60.02;101816.34;5000516;28;20039;-39
2023/12/07 10:34:00;;;;;;;105.00;38.95;;;;;;;5.83;60.91;101813.06;4997104;28;20018;-39
2023/12/07 10:36:26;;;;;;;96.07;38.63;;;;;;;5.89;60.88;101819.06;4997156;28;20113;-39
2023/12/07 10:38:53;;;;;;;106.43;38.65;;;;;;;5.89;61.08;101818.19;4998719;28;20037;-39
2023/12/07 10:41:20;;;;;;;88.13;35.45;;;;;;;5.92;60.35;101823.34;4995716;28;20026;-39
2023/12/07 10:43:51;;;;;;;87.85;34.50;;;;;;;6.01;60.71;101825.78;5001611;28;20034;-39
2023/12/07 10:46:19;;;;;;;105.72;36.88;;;;;;;5.83;61.22;101828.75;4993915;28;20038;-39
2023/12/07 10:48:47;;;;;;;103.75;36.88;;;;;;;5.79;61.19;101831.44;4995095;28;20054;-39
2023/12/07 10:51:22;;;;;;;109.55;36.38;;;;;;;5.69;61.57;101832.50;4989366;28;20030;-39
2023/12/07 10:53:50;;;;;;;99.95;36.78;;;;;;;5.70;61.17;101830.75;4995340;28;20077;-39
2023/12/07 10:56:28;;;;;;;94.57;38.30;;;;;;;5.86;60.85;101826.06;4998473;28;20648;-39
2023/12/07 10:58:55;;;;;;;104.18;37.40;;;;;;;5.93;60.71;101827.69;4997714;28;20060;-39
2023/12/07 11:01:21;;;;;;;99.30;35.13;;;;;;;5.91;60.85;101821.63;5003119;28;20141;-40
2023/12/07 11:03:49;;;;;;;106.65;34.85;;;;;;;5.85;61.31;101824.34;5001432;28;20022;-39
2023/12/07 11:06:15;;;;;;;92.97;34.03;;;;;;;5.75;61.57;101819.31;5005790;28;20543;-38